0°C
Whitehorse, Yukon, Canada
Langue:  Français
Mise à jour10/12/2018 09:12 
 

Nearby METAR Reports

 

KSJC - San Jose, California, USA
Distance from station: NE 14km
Mise à jour: 10/12/2018 08:53
Mist, couvert
Mist, couvert
 Wind from calm
Vent: calme
Température: 9°C
Point de rosée: 7°C
Humidité: 87%
Baromètre: 1024.4 hPa
Résumé: Mist
Clouds: couvert
Visibility: 5 km
Cloud details: Few Clouds 30 m
nuageux 274 m
couvert 610 m
2018/12/10 16:53 KSJC 101653Z 00000KT 3SM BR FEW001 BKN009 OVC020 09/07 A3025 RMK AO2 SLP244 T00890072
KNUQ - Moffett Nas/Mtn, California, USA
Distance from station: N 14km
Mise à jour: 10/12/2018 08:56
Mist, couvert
Mist, couvert
 Wind from N
Vent: N 9 km/h
Température: 9°C
Refroidissement éolien: 7°C
Point de rosée: 8°C
Humidité: 94%
Baromètre: 1024.7 hPa
Résumé: Mist
Clouds: couvert
Visibility: 8 km
Cloud details: Few Clouds 274 m
couvert 1219 m
2018/12/10 16:56 KNUQ 101656Z 35005KT 5SM BR FEW009 OVC040 09/08 A3026 RMK AO2 SLP251 T00890078 $
KPAO - Palo Alto, California, USA
Distance from station: NNO 23km
Mise à jour: 10/12/2018 08:47

 
Visibility: 0 km
2018/12/10 16:47 KPAO 101647Z 00000KTKT 4SM BKN006 OVC033 10/08 A3027 BR
 
KRHV - San Jose/Reid, California, USA
Distance from station: ENE 19km
Mise à jour: 10/12/2018 08:47
Mist, couvert
Mist, couvert
 Wind from varies
Vent: varies 7 km/h
Température: 8°C
Refroidissement éolien: 7°C
Point de rosée: 8°C
Humidité: 100%
Baromètre: 1023.7 hPa
Résumé: Mist
Clouds: couvert
Visibility: 4 km
Cloud details: nuageux 213 m
couvert 457 m
2018/12/10 16:47 KRHV 101647Z VRB04KT 2 1/2SM BR BKN007 OVC015 08/08 A3023
KOAK - Oakland, California, USA
Distance from station: NNO 50km
Mise à jour: 10/12/2018 08:53
Mist, couvert
Mist, couvert
 Wind from calm
Vent: calme
Température: 10°C
Point de rosée: 9°C
Humidité: 94%
Baromètre: 1024.7 hPa
Résumé: Mist
Clouds: couvert
Visibility: 4 km
Cloud details: partiellement nuageux 274 m
nuageux 701 m
couvert 914 m
2018/12/10 16:53 KOAK 101653Z 00000KT 2 1/2SM BR SCT009 BKN023 OVC030 10/09 A3026 RMK AO2 RAE05 SLP247 P0000 T01000089
KSQL - San Carlos Airpo, California, USA
Distance from station: NO 34km
Mise à jour: 10/12/2018 08:47
Mist, couvert
Mist, couvert
 Wind from calm
Vent: calme
Température: 10°C
Point de rosée: 8°C
Humidité: 88%
Baromètre: 1024.7 hPa
Résumé: Mist
Clouds: couvert
Visibility: 8 km
Cloud details: Few Clouds 335 m
nuageux 823 m
couvert 1128 m
2018/12/10 16:47 KSQL 101647Z 00000KT 5SM BR FEW011 BKN027 OVC037 10/08 A3026
 
KSFO - San Francisco, California, USA
Distance from station: NO 49km
Mise à jour: 10/12/2018 08:56
Mist, couvert
Mist, couvert
 Wind from SSE
Vent: SSE 7 km/h
Température: 10°C
Refroidissement éolien: 9°C
Point de rosée: 8°C
Humidité: 88%
Baromètre: 1024.4 hPa
Résumé: Mist
Clouds: couvert
Visibility: 6 km
Cloud details: Few Clouds 122 m
partiellement nuageux 244 m
couvert 640 m
2018/12/10 16:56 KSFO 101656Z 16004KT 4SM BR FEW004 SCT008 OVC021 10/08 A3025 RMK AO2 SLP242 T01000078
KE16 - San Martin, California, USA
Distance from station: ESE 43km
Mise à jour: 10/12/2018 08:50
Mist, couvert
Mist, couvert
 Wind from NNO
Vent: NNO 17 km/h
Température: 8°C
Refroidissement éolien: 5°C
Point de rosée: 8°C
Humidité: 100%
Baromètre: 1024.7 hPa
Résumé: Mist
Clouds: couvert
Visibility: 4 km
Cloud details: couvert 152 m
2018/12/10 16:50 KE16 101650Z AUTO 33009KT 2 1/2SM BR OVC005 08/08 A3026 RMK AO2
KWVI - Watsonville, California, USA
Distance from station: SSE 44km
Mise à jour: 10/12/2018 08:53
Mist, clair
Mist, clair
 Wind from calm
Vent: calme
Température: 7°C
Point de rosée: 6°C
Humidité: 93%
Baromètre: 1023.4 hPa
Résumé: Mist
Clouds: clair
Visibility: 5 km
2018/12/10 16:53 KWVI 101653Z AUTO 00000KT 3SM BR CLR 07/06 A3022 RMK AO2 SLP234 T00720056
 
KHAF - Half Moon Bay, California, USA
Distance from station: ONO 50km
Mise à jour: 10/12/2018 09:00
Haze, couvert
Haze, couvert
 Wind from NE
Vent: NE 20 km/h
Température: 12°C
Point de rosée: 9°C
Humidité: 82%
Baromètre: 1023.7 hPa
Résumé: Haze
Clouds: couvert
Visibility: 10 km
Cloud details: partiellement nuageux 823 m
couvert 1829 m
2018/12/10 17:00 KHAF 101700Z AUTO 05011KT 6SM HZ SCT027 OVC060 12/09 A3023 RMK AO2
KHWD - Hayward, California, USA
Distance from station: N 44km
Mise à jour: 10/12/2018 08:54
Haze, couvert
Haze, couvert
 Wind from NE
Vent: NE 7 km/h
Température: 11°C
Point de rosée: 7°C
Humidité: 77%
Baromètre: 1024.4 hPa
Résumé: Haze
Clouds: couvert
Visibility: 10 km
Cloud details: nuageux 884 m
couvert 1036 m
2018/12/10 16:54 KHWD 101654Z 05004KT 6SM HZ BKN029 OVC034 11/07 A3025 RMK AO2 SLP254 T01060067
KLVK - Livermore, California, USA
Distance from station: NNE 51km
Mise à jour: 10/12/2018 08:53
Mist, couvert
Mist, couvert
 Wind from calm
Vent: calme
Température: 8°C
Point de rosée: 7°C
Humidité: 93%
Baromètre: 1024.4 hPa
Résumé: Mist
Clouds: couvert
Visibility: 2.4 km
Cloud details: nuageux 183 m
couvert 853 m
2018/12/10 16:53 KLVK 101653Z 00000KT 1 1/2SM BR BKN006 OVC028 08/07 A3025 RMK AO2 RAE1559 SLP243 P0000 T00780067